createdAt,value
2022-11-01T00:00:52.511Z,101755.16
2022-11-01T00:03:24.534Z,101758.50
2022-11-01T00:05:54.962Z,101745.13
2022-11-01T00:08:25.027Z,101741.38
2022-11-01T00:11:02.628Z,101744.38
2022-11-01T00:13:32.667Z,101715.97
2022-11-01T00:16:03.227Z,101738.38
2022-11-01T00:18:33.307Z,101743.94
2022-11-01T00:21:03.763Z,101745.22
2022-11-01T00:23:34.891Z,101737.53
2022-11-01T00:26:06.170Z,101724.53
2022-11-01T00:28:36.718Z,101747.38
2022-11-01T00:31:10.256Z,101741.91
2022-11-01T00:33:42.972Z,101741.53
2022-11-01T00:36:13.397Z,101747.47
2022-11-01T00:38:43.173Z,101743.63
2022-11-01T00:41:14.127Z,101723.56
2022-11-01T00:43:44.217Z,101746.53
2022-11-01T00:46:14.651Z,101743.31
2022-11-01T00:48:47.612Z,101718.22
2022-11-01T00:51:17.979Z,101755.31
2022-11-01T00:53:48.029Z,101766.69
2022-11-01T00:56:19.574Z,101773.09
2022-11-01T00:58:49.668Z,101775.16
2022-11-01T01:01:20.279Z,101769.13
2022-11-01T01:03:50.398Z,101765.31
2022-11-01T01:06:20.826Z,101727.09
2022-11-01T01:08:51.091Z,101765.31
2022-11-01T01:11:21.027Z,101760.03
2022-11-01T01:13:50.691Z,101748.97
2022-11-01T01:16:20.808Z,101758.34
2022-11-01T01:18:51.204Z,101754.03
2022-11-01T01:21:21.373Z,101755.53
2022-11-01T01:23:52.617Z,101757.91
2022-11-01T01:26:23.423Z,101752.84
2022-11-01T01:28:56.077Z,101745.88
2022-11-01T01:31:26.606Z,101741.13
2022-11-01T01:33:56.615Z,101743.72
2022-11-01T01:36:27.370Z,101742.31
2022-11-01T01:38:57.694Z,101739.53
2022-11-01T01:41:46.308Z,101750.16
2022-11-01T01:44:52.941Z,101742.22
2022-11-01T01:47:31.774Z,101744.16
2022-11-01T01:50:10.671Z,101718.94
2022-11-01T01:53:03.925Z,101744.03
2022-11-01T01:55:48.325Z,101746.28
2022-11-01T01:58:19.348Z,101721.88
2022-11-01T02:00:49.404Z,101750.91
2022-11-01T02:03:20.262Z,101772.69
2022-11-01T02:06:07.821Z,101772.59
2022-11-01T02:08:41.538Z,101763.47
2022-11-01T02:11:13.679Z,101767.22
2022-11-01T02:13:43.939Z,101744.16
2022-11-01T02:16:14.213Z,101767.94
2022-11-01T02:19:24.097Z,101765.53
2022-11-01T02:22:19.078Z,101756.56
2022-11-01T02:25:02.866Z,101753.59
2022-11-01T02:27:57.278Z,101747.38
2022-11-01T02:30:40.390Z,101744.34
2022-11-01T02:33:16.657Z,101734.94
2022-11-01T02:36:07.020Z,101734.81
2022-11-01T02:39:09.491Z,101739.31
2022-11-01T02:42:06.595Z,101738.56
2022-11-01T02:44:41.600Z,101729.03
2022-11-01T02:47:13.378Z,101737.38
2022-11-01T02:49:47.814Z,101734.28
2022-11-01T02:52:25.390Z,101731.28
2022-11-01T02:55:01.395Z,101733.44
2022-11-01T02:57:42.830Z,101734.19
2022-11-01T03:00:34.977Z,101732.38
2022-11-01T03:03:07.769Z,101740.41
2022-11-01T03:05:40.833Z,101736.47
2022-11-01T03:08:21.950Z,101735.91
2022-11-01T03:11:03.059Z,101731.94
2022-11-01T03:13:55.110Z,101740.50
2022-11-01T03:16:39.717Z,101748.97
2022-11-01T03:19:25.633Z,101748.50
2022-11-01T03:22:05.374Z,101737.88
2022-11-01T03:24:58.216Z,101759.47
2022-11-01T03:27:33.785Z,101761.94
2022-11-01T03:30:12.699Z,101752.63
2022-11-01T03:32:49.154Z,101747.59
2022-11-01T03:35:24.105Z,101755.53
2022-11-01T03:37:58.558Z,101759.91
2022-11-01T03:40:31.294Z,101762.50
2022-11-01T03:43:08.310Z,101764.97
2022-11-01T03:45:41.573Z,101761.53
2022-11-01T03:48:12.194Z,101763.81
2022-11-01T03:50:49.864Z,101760.09
2022-11-01T03:53:21.306Z,101756.88
2022-11-01T03:55:51.735Z,101754.84
2022-11-01T03:58:22.382Z,101751.41
2022-11-01T04:00:52.446Z,101749.94
2022-11-01T04:03:22.254Z,101739.84
2022-11-01T04:05:52.799Z,101707.22
2022-11-01T04:08:22.790Z,101713.22
2022-11-01T04:10:53.400Z,101732.69
2022-11-01T04:13:23.724Z,101728.78
2022-11-01T04:16:11.855Z,101730.69
2022-11-01T04:19:00.080Z,101728.53
2022-11-01T04:21:35.905Z,101734.22
2022-11-01T04:24:06.116Z,101723.59
2022-11-01T04:26:37.249Z,101733.34
2022-11-01T04:29:07.216Z,101739.84
2022-11-01T04:31:38.361Z,101697.16
2022-11-01T04:34:08.352Z,101730.53
2022-11-01T04:36:41.165Z,101725.50
2022-11-01T04:39:14.166Z,101732.28
2022-11-01T04:41:44.517Z,101729.34
2022-11-01T04:44:14.448Z,101732.81
2022-11-01T04:46:44.175Z,101737.50
2022-11-01T04:49:14.165Z,101714.63
2022-11-01T04:51:44.792Z,101718.97
2022-11-01T04:54:14.873Z,101716.44
2022-11-01T04:56:45.597Z,101713.28
2022-11-01T04:59:15.740Z,101719.75
2022-11-01T05:01:46.348Z,101723.91
2022-11-01T05:04:16.239Z,101718.44
2022-11-01T05:06:46.310Z,101730.38
2022-11-01T05:09:16.209Z,101724.72
2022-11-01T05:11:46.321Z,101728.22
2022-11-01T05:14:16.918Z,101726.53
2022-11-01T05:16:47.279Z,101735.75
2022-11-01T05:19:18.189Z,101741.34
2022-11-01T05:21:48.233Z,101737.69
2022-11-01T05:24:19.350Z,101737.06
2022-11-01T05:26:51.953Z,101737.31
2022-11-01T05:29:32.950Z,101743.81
2022-11-01T05:32:03.779Z,101751.19
2022-11-01T05:34:33.714Z,101749.03
2022-11-01T05:37:03.711Z,101752.94
2022-11-01T05:39:34.166Z,101757.81
2022-11-01T05:42:05.713Z,101746.53
2022-11-01T05:44:35.713Z,101753.13
2022-11-01T05:47:07.359Z,101755.81
2022-11-01T05:49:36.876Z,101755.63
2022-11-01T05:52:06.689Z,101758.09
2022-11-01T05:54:37.171Z,101761.59
2022-11-01T05:57:07.911Z,101763.66
2022-11-01T05:59:38.375Z,101763.94
2022-11-01T06:02:08.166Z,101760.97
2022-11-01T06:04:38.698Z,101774.34
2022-11-01T06:07:08.666Z,101769.81
2022-11-01T06:09:39.259Z,101774.22
2022-11-01T06:12:09.447Z,101774.78
2022-11-01T06:14:39.620Z,101774.03
2022-11-01T06:17:09.854Z,101777.50
2022-11-01T06:19:40.005Z,101769.88
2022-11-01T06:22:09.731Z,101770.53
2022-11-01T06:24:39.987Z,101770.47
2022-11-01T06:27:13.529Z,101766.75
2022-11-01T06:29:43.678Z,101767.91
2022-11-01T06:32:14.136Z,101774.66
2022-11-01T06:34:45.073Z,101786.19
2022-11-01T06:37:15.707Z,101792.19
2022-11-01T06:39:46.848Z,101793.50
2022-11-01T06:42:17.297Z,101797.00
2022-11-01T06:44:47.358Z,101769.31
2022-11-01T06:47:17.127Z,101802.78
2022-11-01T06:49:47.606Z,101810.41
2022-11-01T06:52:17.663Z,101816.09
2022-11-01T06:54:49.046Z,101798.78
2022-11-01T06:57:21.045Z,101826.78
2022-11-01T06:59:51.958Z,101817.66
2022-11-01T07:02:27.061Z,101826.28
2022-11-01T07:05:00.092Z,101831.34
2022-11-01T07:07:30.373Z,101839.63
2022-11-01T07:10:00.872Z,101846.94
2022-11-01T07:12:30.893Z,101852.81
2022-11-01T07:15:01.413Z,101858.09
2022-11-01T07:17:31.170Z,101845.81
2022-11-01T07:20:01.698Z,101856.44
2022-11-01T07:22:31.718Z,101860.97
2022-11-01T07:25:02.255Z,101857.47
2022-11-01T07:27:32.848Z,101871.44
2022-11-01T07:30:02.842Z,101860.03
2022-11-01T07:32:36.300Z,101864.41
2022-11-01T07:35:09.317Z,101872.41
2022-11-01T07:37:42.346Z,101873.97
2022-11-01T07:40:13.121Z,101881.66
2022-11-01T07:42:47.044Z,101883.63
2022-11-01T07:45:17.080Z,101889.38
2022-11-01T07:47:47.505Z,101891.66
2022-11-01T07:50:17.657Z,101890.13
2022-11-01T07:52:48.260Z,101900.19
2022-11-01T07:55:18.415Z,101895.03
2022-11-01T07:57:51.378Z,101904.47
2022-11-01T08:00:21.614Z,101905.75
2022-11-01T08:02:52.269Z,101904.13
2022-11-01T08:05:22.276Z,101919.78
2022-11-01T08:07:52.628Z,101918.78
2022-11-01T08:10:23.194Z,101934.44
2022-11-01T08:12:53.678Z,101924.63
2022-11-01T08:15:23.698Z,101924.94
2022-11-01T08:17:56.048Z,101934.81
2022-11-01T08:20:27.391Z,101940.59
2022-11-01T08:22:57.869Z,101947.78
2022-11-01T08:25:28.234Z,101950.28
2022-11-01T08:28:06.996Z,101950.53
2022-11-01T08:30:39.014Z,101947.75
2022-11-01T08:33:09.699Z,101964.56
2022-11-01T08:35:40.043Z,101962.91
2022-11-01T08:38:11.046Z,101978.44
2022-11-01T08:40:41.578Z,101973.75
2022-11-01T08:43:12.383Z,101982.97
2022-11-01T08:45:46.117Z,101974.38
2022-11-01T08:48:18.572Z,101986.66
2022-11-01T08:50:48.726Z,101985.34
2022-11-01T08:53:20.661Z,101999.22
2022-11-01T08:55:57.147Z,101995.66
2022-11-01T08:58:27.522Z,102006.34
2022-11-01T09:00:57.528Z,102001.25
2022-11-01T09:03:27.972Z,102010.28
2022-11-01T09:05:59.102Z,102004.75
2022-11-01T09:08:29.437Z,102009.72
2022-11-01T09:11:02.203Z,102012.78
2022-11-01T09:13:32.553Z,102001.16
2022-11-01T09:16:07.786Z,102015.00
2022-11-01T09:18:38.771Z,102024.81
2022-11-01T09:21:11.673Z,102021.94
2022-11-01T09:23:42.118Z,102025.41
2022-11-01T09:26:12.923Z,102034.34
2022-11-01T09:28:43.353Z,102036.66
2022-11-01T09:31:19.824Z,102043.63
2022-11-01T09:33:50.314Z,102041.19
2022-11-01T09:36:20.015Z,102026.59
2022-11-01T09:38:50.111Z,102044.00
2022-11-01T09:41:30.070Z,102045.81
2022-11-01T09:44:06.281Z,102053.53
2022-11-01T09:46:48.941Z,102054.78
2022-11-01T09:49:26.930Z,102069.13
2022-11-01T09:51:58.089Z,102070.53
2022-11-01T09:54:29.261Z,102077.53
2022-11-01T09:57:08.674Z,102089.03
2022-11-01T09:59:45.545Z,102092.84
2022-11-01T10:02:40.226Z,102094.84
2022-11-01T10:05:14.564Z,102067.25
2022-11-01T10:08:14.188Z,102085.16
2022-11-01T10:11:05.339Z,102084.47
2022-11-01T10:13:53.873Z,102087.72
2022-11-01T10:16:49.988Z,102096.53
2022-11-01T10:19:25.033Z,102095.41
2022-11-01T10:22:02.244Z,102088.50
2022-11-01T10:24:53.973Z,102103.06
2022-11-01T10:27:37.150Z,102095.84
2022-11-01T10:30:19.426Z,102088.19
2022-11-01T10:32:52.010Z,102092.59
2022-11-01T10:35:36.903Z,102079.56
2022-11-01T10:38:25.134Z,102095.13
2022-11-01T10:41:12.975Z,102093.47
2022-11-01T10:43:48.073Z,102098.84
2022-11-01T10:46:23.149Z,102089.81
2022-11-01T10:49:01.517Z,102085.63
2022-11-01T10:51:34.942Z,102102.28
2022-11-01T10:54:09.922Z,102107.00
2022-11-01T10:56:47.163Z,102105.66
2022-11-01T10:59:42.538Z,102112.09
2022-11-01T11:02:43.125Z,102109.91
2022-11-01T11:05:17.733Z,102111.84
2022-11-01T11:07:51.277Z,102120.09
2022-11-01T11:10:25.883Z,102133.63
2022-11-01T11:13:04.700Z,102121.59
2022-11-01T11:15:44.829Z,102115.34
2022-11-01T11:18:27.048Z,102120.94
2022-11-01T11:21:01.968Z,102116.75
2022-11-01T11:23:37.386Z,102112.47
2022-11-01T11:26:21.908Z,102112.13
2022-11-01T11:28:57.693Z,102119.81
2022-11-01T11:31:32.552Z,102112.72
2022-11-01T11:34:23.921Z,102111.31
2022-11-01T11:36:56.201Z,102120.00
2022-11-01T11:39:37.801Z,102121.78
2022-11-01T11:42:17.153Z,102122.53
2022-11-01T11:44:55.648Z,102122.31
2022-11-01T11:47:29.498Z,102112.97
2022-11-01T11:50:01.768Z,102129.75
2022-11-01T11:52:41.002Z,102126.56
2022-11-01T11:55:54.745Z,102133.09
2022-11-01T11:58:24.684Z,102127.56
2022-11-01T12:00:56.001Z,102130.28
2022-11-01T12:03:25.950Z,102131.00
2022-11-01T12:06:05.578Z,102121.41
2022-11-01T12:08:51.904Z,102130.88
2022-11-01T12:11:24.938Z,102125.38
2022-11-01T12:14:08.567Z,102137.75
2022-11-01T12:16:42.747Z,102136.03
2022-11-01T12:19:33.323Z,102132.63
2022-11-01T12:22:04.372Z,102127.66
2022-11-01T12:24:42.524Z,102133.44
2022-11-01T12:27:21.716Z,102135.25
2022-11-01T12:29:57.659Z,102138.50
2022-11-01T12:32:40.598Z,102133.44
2022-11-01T12:35:36.471Z,102137.50
2022-11-01T12:39:12.035Z,102138.78
2022-11-01T12:41:46.379Z,102128.91
2022-11-01T12:44:37.483Z,102127.97
2022-11-01T12:47:26.104Z,102138.19
2022-11-01T12:50:17.326Z,102136.56
2022-11-01T12:52:59.014Z,102135.63
2022-11-01T12:55:39.378Z,102132.16
2022-11-01T12:58:33.503Z,102131.53
2022-11-01T13:01:39.157Z,102141.00
2022-11-01T13:04:31.818Z,102137.91
2022-11-01T13:07:11.034Z,102140.84
2022-11-01T13:10:03.802Z,102129.34
2022-11-01T13:12:40.802Z,102126.34
2022-11-01T13:15:44.095Z,102126.97
2022-11-01T13:18:46.929Z,102120.72
2022-11-01T13:21:39.847Z,102129.69
2022-11-01T13:24:26.951Z,102121.50
2022-11-01T13:27:11.576Z,102128.13
2022-11-01T13:29:56.089Z,102103.19
2022-11-01T13:32:51.973Z,102133.19
2022-11-01T13:35:30.868Z,102131.13
2022-11-01T13:38:16.013Z,102119.00
2022-11-01T13:41:05.921Z,102116.72
2022-11-01T13:43:42.262Z,102122.44
2022-11-01T13:46:36.954Z,102113.22
2022-11-01T13:49:10.389Z,102120.56
2022-11-01T13:52:06.947Z,102111.84
2022-11-01T13:54:44.648Z,102118.97
2022-11-01T13:57:18.492Z,102111.06
2022-11-01T14:00:00.946Z,102100.34
2022-11-01T14:02:54.100Z,102097.47
2022-11-01T14:05:38.097Z,102108.44
2022-11-01T14:08:14.467Z,102101.84
2022-11-01T14:10:49.539Z,102094.31
2022-11-01T14:13:31.871Z,102095.63
2022-11-01T14:16:04.744Z,102091.72
2022-11-01T14:19:19.113Z,102082.44
2022-11-01T14:21:54.525Z,102076.84
2022-11-01T14:24:34.799Z,102078.56
2022-11-01T14:27:27.942Z,102068.13
2022-11-01T14:29:58.376Z,102074.09
2022-11-01T14:32:31.277Z,102061.00
2022-11-01T14:35:26.890Z,102055.13
2022-11-01T14:38:05.518Z,102048.53
2022-11-01T14:40:39.365Z,102039.69
2022-11-01T14:43:22.064Z,102031.03
2022-11-01T14:46:36.984Z,102036.47
2022-11-01T14:49:18.713Z,102034.38
2022-11-01T14:52:19.280Z,102034.97
2022-11-01T14:54:59.338Z,102034.97
2022-11-01T14:57:31.908Z,102040.22
2022-11-01T15:00:26.674Z,102033.53
2022-11-01T15:05:30.450Z,102032.13
2022-11-01T15:08:01.197Z,102006.00
2022-11-01T15:10:43.374Z,102018.88
2022-11-01T15:13:17.578Z,102023.94
2022-11-01T15:15:58.906Z,102028.22
2022-11-01T15:18:32.257Z,102035.22
2022-11-01T15:21:03.369Z,102036.13
2022-11-01T15:23:39.207Z,102030.97
2022-11-01T15:26:14.185Z,102026.53
2022-11-01T15:29:08.170Z,102044.84
2022-11-01T15:31:50.593Z,102036.03
2022-11-01T15:34:29.294Z,102031.03
2022-11-01T15:37:11.489Z,102027.50
2022-11-01T15:39:44.292Z,102033.03
2022-11-01T15:42:21.445Z,102030.09
2022-11-01T15:44:52.322Z,102019.19
2022-11-01T15:47:27.202Z,101995.13
2022-11-01T15:50:02.038Z,102017.84
2022-11-01T15:52:35.674Z,102030.69
2022-11-01T15:55:17.825Z,102031.81
2022-11-01T15:57:50.213Z,102018.53
2022-11-01T16:00:23.544Z,102027.47
2022-11-01T16:03:02.818Z,102035.00
2022-11-01T16:05:43.192Z,102036.91
2022-11-01T16:08:50.846Z,102040.41
2022-11-01T16:11:23.881Z,102035.00
2022-11-01T16:14:23.198Z,102020.47
2022-11-01T16:17:07.544Z,102029.56
2022-11-01T16:19:38.203Z,102031.13
2022-11-01T16:22:27.879Z,102032.53
2022-11-01T16:25:07.095Z,102016.25
2022-11-01T16:27:37.168Z,102015.63
2022-11-01T16:30:29.665Z,102012.25
2022-11-01T16:33:28.312Z,102028.09
2022-11-01T16:36:00.673Z,102035.69
2022-11-01T16:38:39.303Z,102030.66
2022-11-01T16:41:19.960Z,102035.34
2022-11-01T16:43:58.829Z,102023.38
2022-11-01T16:46:33.674Z,102023.34
2022-11-01T16:49:21.824Z,102021.53
2022-11-01T16:51:53.591Z,102014.22
2022-11-01T16:54:25.434Z,101988.44
2022-11-01T16:56:59.467Z,101998.03
2022-11-01T16:59:36.856Z,102002.69
2022-11-01T17:02:20.068Z,101996.34
2022-11-01T17:04:57.252Z,102003.19
2022-11-01T17:07:30.979Z,102000.94
2022-11-01T17:10:01.713Z,101995.44
2022-11-01T17:12:31.752Z,102000.13
2022-11-01T17:15:03.850Z,102004.31
2022-11-01T17:17:34.058Z,101993.81
2022-11-01T17:20:05.255Z,101987.81
2022-11-01T17:22:37.874Z,101986.38
2022-11-01T17:25:08.755Z,101980.22
2022-11-01T17:27:38.842Z,101984.28
2022-11-01T17:30:10.747Z,101978.06
2022-11-01T17:32:40.784Z,101975.56
2022-11-01T17:35:12.857Z,101976.63
2022-11-01T17:37:43.483Z,101976.63
2022-11-01T17:40:22.540Z,101957.66
2022-11-01T17:42:53.299Z,101966.69
2022-11-01T17:45:25.646Z,101954.09
2022-11-01T17:47:56.742Z,101965.94
2022-11-01T17:50:27.481Z,101966.81
2022-11-01T17:52:57.981Z,101972.47
2022-11-01T17:55:29.718Z,101958.50
2022-11-01T17:58:00.330Z,101958.84
2022-11-01T18:00:33.135Z,101958.84
2022-11-01T18:03:05.713Z,101963.38
2022-11-01T18:05:36.867Z,101955.47
2022-11-01T18:08:20.139Z,101944.19
2022-11-01T18:11:12.781Z,101944.19
2022-11-01T18:13:55.131Z,101952.28
2022-11-01T18:16:42.898Z,101938.97
2022-11-01T18:19:37.574Z,101941.19
2022-11-01T18:22:36.065Z,101940.69
2022-11-01T18:25:15.167Z,101935.69
2022-11-01T18:27:46.703Z,101933.66
2022-11-01T18:30:19.491Z,101931.31
2022-11-01T18:33:07.410Z,101936.03
2022-11-01T18:35:46.943Z,101948.34
2022-11-01T18:38:30.340Z,101954.19
2022-11-01T18:41:08.108Z,101950.97
2022-11-01T18:43:44.640Z,101956.25
2022-11-01T18:46:27.373Z,101952.09
2022-11-01T18:49:04.823Z,101944.22
2022-11-01T18:51:38.096Z,101944.94
2022-11-01T18:54:12.534Z,101953.88
2022-11-01T18:56:49.380Z,101959.53
2022-11-01T18:59:36.470Z,101956.22
2022-11-01T19:02:17.049Z,101960.88
2022-11-01T19:04:50.161Z,101980.00
2022-11-01T19:07:23.929Z,101974.50
2022-11-01T19:10:01.693Z,101978.72
2022-11-01T19:12:41.575Z,101983.88
2022-11-01T19:15:15.573Z,101980.56
2022-11-01T19:17:47.025Z,101981.22
2022-11-01T19:20:46.612Z,101976.72
2022-11-01T19:23:39.379Z,101982.81
2022-11-01T19:26:35.692Z,101956.88
2022-11-01T19:29:23.091Z,101981.63
2022-11-01T19:32:01.895Z,101982.94
2022-11-01T19:34:39.294Z,101991.50
2022-11-01T19:37:34.615Z,101991.66
2022-11-01T19:40:15.823Z,101986.72
2022-11-01T19:42:46.322Z,101987.47
2022-11-01T19:45:16.145Z,101990.13
2022-11-01T19:47:50.683Z,101990.34
2022-11-01T19:50:28.354Z,101992.69
2022-11-01T19:53:00.552Z,101996.56
2022-11-01T19:56:06.339Z,102006.03
2022-11-01T19:58:56.636Z,102009.19
2022-11-01T20:01:52.917Z,102003.41
2022-11-01T20:04:32.432Z,102007.25
2022-11-01T20:07:16.924Z,102005.66
2022-11-01T20:09:48.699Z,102012.53
2022-11-01T20:12:22.140Z,102008.81
2022-11-01T20:14:52.841Z,102013.25
2022-11-01T20:17:22.368Z,102023.28
2022-11-01T20:19:52.107Z,102024.75
2022-11-01T20:22:22.557Z,102029.84
2022-11-01T20:24:52.935Z,102035.56
2022-11-01T20:27:24.464Z,102033.06
2022-11-01T20:29:54.752Z,102047.44
2022-11-01T20:32:25.524Z,102058.28
2022-11-01T20:34:55.506Z,102065.75
2022-11-01T20:37:28.945Z,102070.38
2022-11-01T20:39:59.350Z,102081.00
2022-11-01T20:42:29.342Z,102055.09
2022-11-01T20:44:59.989Z,102084.47
2022-11-01T20:47:30.196Z,102088.50
2022-11-01T20:50:02.037Z,102081.88
2022-11-01T20:52:39.606Z,102094.59
2022-11-01T20:55:15.429Z,102092.69
2022-11-01T20:57:46.551Z,102098.84
2022-11-01T21:00:19.559Z,102102.13
2022-11-01T21:02:49.719Z,102095.81
2022-11-01T21:05:24.335Z,102109.13
2022-11-01T21:08:11.866Z,102114.03
2022-11-01T21:10:44.459Z,102121.50
2022-11-01T21:13:35.362Z,102118.44
2022-11-01T21:16:15.251Z,102125.41
2022-11-01T21:18:47.025Z,102124.19
2022-11-01T21:21:17.456Z,102121.63
2022-11-01T21:23:49.059Z,102116.38
2022-11-01T21:26:29.599Z,102122.00
2022-11-01T21:29:20.426Z,102120.97
2022-11-01T21:31:50.989Z,102127.34
2022-11-01T21:34:28.386Z,102135.91
2022-11-01T21:37:00.147Z,102134.28
2022-11-01T21:39:33.950Z,102138.00
2022-11-01T21:42:28.883Z,102136.44
2022-11-01T21:45:02.259Z,102137.16
2022-11-01T21:47:34.489Z,102146.00
2022-11-01T21:50:04.524Z,102149.22
2022-11-01T21:52:34.514Z,102151.84
2022-11-01T21:55:04.614Z,102151.94
2022-11-01T21:57:35.091Z,102158.78
2022-11-01T22:00:05.710Z,102158.31
2022-11-01T22:02:36.351Z,102165.97
2022-11-01T22:05:06.922Z,102173.97
2022-11-01T22:07:37.340Z,102184.16
2022-11-01T22:10:07.663Z,102183.50
2022-11-01T22:12:38.399Z,102186.19
2022-11-01T22:15:09.170Z,102179.09
2022-11-01T22:17:39.734Z,102184.78
2022-11-01T22:20:10.313Z,102189.16
2022-11-01T22:22:40.991Z,102200.13
2022-11-01T22:25:11.196Z,102195.00
2022-11-01T22:27:41.148Z,102201.28
2022-11-01T22:30:11.684Z,102175.94
2022-11-01T22:32:42.451Z,102204.06
2022-11-01T22:35:12.468Z,102212.56
2022-11-01T22:37:43.379Z,102211.94
2022-11-01T22:40:14.797Z,102211.41
2022-11-01T22:42:44.761Z,102211.06
2022-11-01T22:45:19.105Z,102219.56
2022-11-01T22:47:49.134Z,102224.72
2022-11-01T22:50:29.421Z,102222.38
2022-11-01T22:52:59.594Z,102229.06
2022-11-01T22:55:31.739Z,102232.00
2022-11-01T22:58:27.508Z,102246.38
2022-11-01T23:01:01.652Z,102202.25
2022-11-01T23:03:40.177Z,102245.75
2022-11-01T23:06:36.103Z,102243.38
2022-11-01T23:09:18.671Z,102249.63
2022-11-01T23:12:13.101Z,102254.31
2022-11-01T23:14:49.109Z,102258.63
2022-11-01T23:17:36.265Z,102253.06
2022-11-01T23:20:07.009Z,102263.13
2022-11-01T23:22:38.130Z,102267.28
2022-11-01T23:25:10.023Z,102265.63
2022-11-01T23:27:40.609Z,102259.06
2022-11-01T23:30:14.076Z,102255.44
2022-11-01T23:32:47.229Z,102277.63
2022-11-01T23:35:22.705Z,102277.06
2022-11-01T23:37:54.365Z,102282.44
2022-11-01T23:40:30.559Z,102243.19
2022-11-01T23:43:08.654Z,102280.69
2022-11-01T23:45:38.115Z,102252.31
2022-11-01T23:48:11.022Z,102293.28
2022-11-01T23:50:47.213Z,102268.19
2022-11-01T23:53:19.461Z,102300.13
2022-11-01T23:55:54.783Z,102290.31
2022-11-01T23:58:32.376Z,102297.66
